http://www.ohio.gov http://www.dot.state.oh.us
W W W . B U C K E Y E T R A F F I C . O R G

1-SR49 @ SR249 (200000) Status Air Temp Sfc Temp Sub Temp Dew Temp Wind Precip Traffic Updated
Sensor [A]: Atmospheric - 31.8 - - - - - - 10/23/2014 3:42:37 AM
Sensor [0]: SR49 NB Lane Dry - 41.9 - - - - 0 / 9.9 10/23/2014 3:42:37 AM
Sensor [1]: SR 249 EB Lane Dry - 41.9 - - - - 0 / 9.9 10/23/2014 3:42:37 AM
2-SR-309 @ SR-235 (200001) Status Air Temp Sfc Temp Sub Temp Dew Temp Wind Precip Traffic Updated
Sensor [A]: Atmospheric - 41.4 - - 38.1 3.7 / N - - 10/23/2014 3:41:45 AM
Sensor [0]: SR309 EB Dry - 43.7 57.2 - - - - 10/23/2014 3:41:45 AM
Sensor [1]: SR235 SB Dry - 49.1 - - - - - 10/23/2014 3:41:45 AM
3-US24 @ Indiana Line (200002) Status Air Temp Sfc Temp Sub Temp Dew Temp Wind Precip Traffic Updated
Sensor [A]: Atmospheric - 35.1 - - 33.8 1.2 / NW - - 10/23/2014 3:42:41 AM
Sensor [0]: EB Driving Dry - 43.7 56.3 - - - 0 / 9.9 10/23/2014 3:42:41 AM
Sensor [1]: WB Driving Dry - 43.7 - - - - 0 / 9.9 10/23/2014 3:42:41 AM
4-US224 @ SR190 (200003) Status Air Temp Sfc Temp Sub Temp Dew Temp Wind Precip Traffic Updated
Sensor [A]: Atmospheric - 33.3 - - 32.7 1.2 / SW - - 10/23/2014 3:25:33 AM
Sensor [0]: Eastbound Driving Lane Dry - 32.9 - - - - 1 / 65.2 10/23/2014 3:25:33 AM
5- US30 @ SR49 North (200004) Status Air Temp Sfc Temp Sub Temp Dew Temp Wind Precip Traffic Updated
Sensor [A]: Atmospheric - 35.4 - - 36.3 1.2 / SW - - 10/23/2014 3:44:36 AM
Sensor [0]: US30 Westbound Driving Dry - 43.7 - - - - 0 / 9.9 10/23/2014 3:44:36 AM
Sensor [1]: US30 Eastbound Driving Dry - 43.7 - - - - 0 / 9.9 10/23/2014 3:44:36 AM
6-US23 @ SLM 11.2 (200005) Status Air Temp Sfc Temp Sub Temp Dew Temp Wind Precip Traffic Updated
Sensor [A]: Atmospheric - - - - - 4.3 / NW - - 10/22/2014 5:23:26 PM
Sensor [0]: US23 NB Driving Lane Bridge Deck Dry - 56.3 - - - - 0 / 9.9 10/22/2014 5:23:26 PM
Sensor [3]: US23 SB Driving Lane Dry - 56.3 - - - - 0 / 9.9 10/22/2014 5:23:26 PM
7-US30 Bypass @ SR4 (200006) Status Air Temp Sfc Temp Sub Temp Dew Temp Wind Precip Traffic Updated
Sensor [A]: Atmospheric - 48.0 - - 41.9 7.5 / NE - - 10/22/2014 12:54:01 PM
Sensor [0]: US30 East Bound Driving Lane No Report - - - - - - 20 / 60.9 10/22/2014 12:54:01 PM
Sensor [1]: US30 West Bound Driving Lane No Report - - - - - - 80 / 158.4 10/22/2014 12:54:01 PM
8-Huron County Garage (200007) Status Air Temp Sfc Temp Sub Temp Dew Temp Wind Precip Traffic Updated
Sensor [A]: Atmospheric - 39.6 - - 38.8 1.9 / NW - - 10/23/2014 3:41:37 AM
Sensor [0]: US250 NB Lane Trace Moisture - 38.1 - - - - 2 / 57.2 10/23/2014 3:41:37 AM
Sensor [1]: US250 SB Lane Trace Moisture - 45.5 - - - - 0 / 37.3 10/23/2014 3:41:37 AM
9-I77 MM 109 @ Belden Village (200008) Status Air Temp Sfc Temp Sub Temp Dew Temp Wind Precip Traffic Updated
Sensor [A]: Atmospheric - 46.0 - - 43.5 1.9 / NE - - 10/23/2014 3:43:04 AM
Sensor [0]: Ramp Bridge over I-77 Dry - 49.1 - - - - 0 / 9.9 10/23/2014 3:43:04 AM
Sensor [1]: Bridgedeck over I-77 Dry - 45.5 - - - - 0 / 9.9 10/23/2014 3:43:04 AM
10-SR5@SR45 (200009) Status Air Temp Sfc Temp Sub Temp Dew Temp Wind Precip Traffic Updated
Sensor [A]: Atmospheric - 45.3 - - 41.2 3.1 / NW - - 10/23/2014 3:40:46 AM
Sensor [0]: EB Driving Dry - 41.9 54.5 - - - - 10/23/2014 3:40:46 AM
Sensor [1]: SR5 EB Passing Dry - 41.9 - - - - - 10/23/2014 3:40:46 AM
Sensor [2]: SR5 WB Passing Bridgedeck Trace Moisture - 41.9 - - - - - 10/23/2014 3:40:46 AM
11-SR36@SR206 (200010) Status Air Temp Sfc Temp Sub Temp Dew Temp Wind Precip Traffic Updated
Sensor [A]: Atmospheric - 42.6 - - 41.7 4.3 / NW - - 10/23/2014 3:41:47 AM
Sensor [0]: US36 EB Wet - 40.1 - - - - - 10/23/2014 3:41:47 AM
Sensor [1]: US36 WB Trace Moisture - 45.5 - - - - - 10/23/2014 3:41:47 AM
12- US 33 @ MM 11.5 (200011) Status Air Temp Sfc Temp Sub Temp Dew Temp Wind Precip Traffic Updated
Sensor [A]: Atmospheric - 45.0 - - 41.7 6.8 / N - - 10/22/2014 12:56:57 AM
Sensor [0]: US33 EB Driving Dry - 49.3 57.7 - - - - 10/22/2014 12:56:57 AM
Sensor [1]: US33 WB Driving Lane Bridgedeck Dry - 46.8 - - - - - 10/22/2014 12:56:57 AM
13-Knox County Garage (200012) Status Air Temp Sfc Temp Sub Temp Dew Temp Wind Precip Traffic Updated
Sensor [A]: Atmospheric - 41.0 - - 39.6 - - - 10/23/2014 3:43:06 AM
Sensor [1]: SR-3 SB Driving Dry - 37.4 - - - - 1 / 47.2 10/23/2014 3:43:06 AM
14-SR13@CR26N/Sheridan Rd (200013) Status Air Temp Sfc Temp Sub Temp Dew Temp Wind Precip Traffic Updated
Sensor [A]: Atmospheric - 43.3 - - 39.9 5.0 / NW - - 10/23/2014 3:43:09 AM
Sensor [0]: SR13 Eastbound Trace Moisture - 40.1 - - - - - 10/23/2014 3:43:09 AM
15-US35 @ SR62 (200014) Status Air Temp Sfc Temp Sub Temp Dew Temp Wind Precip Traffic Updated
Sensor [A]: Atmospheric - 45.3 - - 25.9 3.7 / N - - 10/23/2014 3:45:30 AM
Sensor [0]: US35 EB Driving Dry - 45.5 59.0 - - - - 10/23/2014 3:45:30 AM
Sensor [1]: US35 WB Driving Dry - 43.7 - - - - - 10/23/2014 3:45:30 AM
Sensor [2]: SR62 NB Bridgedeck Dry - 41.9 - - - - - 10/23/2014 3:45:30 AM
Sensor [3]: SR62 NB Bridgedeck Dry - 50.9 - - - - - 10/23/2014 3:45:30 AM
Sensor [4]: US35 EB Driving Dry - 47.3 - - - - - 10/23/2014 3:45:30 AM
16-SR-752 @ 1.3 Pickaway County (200015) Status Air Temp Sfc Temp Sub Temp Dew Temp Wind Precip Traffic Updated
Sensor [A]: Atmospheric - 42.1 - - 39.7 - - - 10/23/2014 3:40:53 AM
17-US23 @ E. Fairground Road Overpass (200016) Status Air Temp Sfc Temp Sub Temp Dew Temp Wind Precip Traffic Updated
Sensor [A]: Atmospheric - 53.4 - - 51.6 3.1 / W - - 10/20/2014 5:39:57 PM
Sensor [0]: US23 NorthBound Passing Approach Trace Moisture - 53.8 - - - - - 10/20/2014 5:39:57 PM
Sensor [1]: US23 SouthBound Passing Bridgedeck No Report - - - - - - 34 / 57.2 10/20/2014 5:39:57 PM
18-US33 @ SR739 (200017) Status Air Temp Sfc Temp Sub Temp Dew Temp Wind Precip Traffic Updated
Sensor [A]: Atmospheric - 43.9 - - 43.5 4.3 / NE - - 10/23/2014 3:41:11 AM
Sensor [1]: US33 EB Driving Dry - 43.7 - - - - - 10/23/2014 3:41:11 AM
Sensor [2]: US33 EB Passing Dry - 43.7 - - - - - 10/23/2014 3:41:11 AM
Sensor [3]: US33 WB Passing Dry - 43.7 - - - - - 10/23/2014 3:41:11 AM
Sensor [4]: US33 WB Driving Dry - 49.1 - - - - - 10/23/2014 3:41:11 AM
Sensor [5]: SR739 NB Bridgedeck Dry - 45.5 - - - - - 10/23/2014 3:41:11 AM
19-US68 @ SLM 1.4 (200018) Status Air Temp Sfc Temp Sub Temp Dew Temp Wind Precip Traffic Updated
Sensor [A]: Atmospheric - 43.7 - - 41.2 1.9 / NE - - 10/23/2014 3:39:16 AM
Sensor [0]: US68 SB Driving Lane Dry - 45.1 46.9 - - - - 10/23/2014 3:39:16 AM
Sensor [1]: US68 NB Driving Lane Dry - 48.4 - - - - - 10/23/2014 3:39:16 AM
Sensor [2]: US68 NB Driving Lane Bridgedeck Dry - 48.2 - - - - - 10/23/2014 3:39:16 AM
20-SR502 @ SLM 0.5 (200019) Status Air Temp Sfc Temp Sub Temp Dew Temp Wind Precip Traffic Updated
Sensor [A]: Atmospheric - 51.3 - - 53.4 1.2 / E - - 10/20/2014 9:12:25 PM
Sensor [0]: SR502 EB Lane Wet - 56.3 60.8 - - - 0 / 9.9 10/20/2014 9:12:25 PM
21-US33 @ SR540 (200020) Status Air Temp Sfc Temp Sub Temp Dew Temp Wind Precip Traffic Updated
Sensor [A]: Atmospheric - 40.8 - - 37.9 3.1 / NW - - 10/23/2014 3:21:31 AM
Sensor [0]: US-33 East Bound Driving Lane Dry - 47.3 54.5 - - - 3 / 55.9 10/23/2014 3:21:31 AM
Sensor [1]: US-33 West Bound Passing Lane Wet - 47.3 - - - - 0 / 52.2 10/23/2014 3:21:31 AM
22-SR29 @ SLM 0.8 (200021) Status Air Temp Sfc Temp Sub Temp Dew Temp Wind Precip Traffic Updated
Sensor [A]: Atmospheric - 57.9 - - 50.0 - - - 9/18/2014 9:22:00 AM
Sensor [0]: SR29 EB Lane Error - - 74.1 - - - 0 / 5.0 9/18/2014 9:22:00 AM
Sensor [1]: SR29 WB Lane Error - - - - - - 1 / 5.0 9/18/2014 9:22:00 AM
23-SR41 @ SR136 Adams County (200022) Status Air Temp Sfc Temp Sub Temp Dew Temp Wind Precip Traffic Updated
Sensor [A]: Atmospheric - 53.8 - - 48.6 1.9 / SW - - 10/20/2014 11:33:46 PM
Sensor [0]: SR136 NB Lane Dry - 50.9 62.6 - - - - 10/20/2014 11:33:46 PM
Sensor [1]: SR136 SB Lane Dry - 50.9 - - - - - 10/20/2014 11:33:46 PM
24-US68@SR125 (200023) Status Air Temp Sfc Temp Sub Temp Dew Temp Wind Precip Traffic Updated
Sensor [A]: Atmospheric - 47.5 - - -6.3 0.6 / E - - 10/23/2014 3:28:20 AM
Sensor [0]: NB US68 Dry - 50.9 - - - - - 10/23/2014 3:28:20 AM
Sensor [1]: SB US68 Dry - 54.5 - - - - - 10/23/2014 3:28:20 AM
25-Highland County Garage (200024) Status Air Temp Sfc Temp Sub Temp Dew Temp Wind Precip Traffic Updated
Sensor [A]: Atmospheric - 48.2 - - 40.8 6.2 / N - - 10/22/2014 6:44:21 PM
26-SR32 @ US35 (200025) Status Air Temp Sfc Temp Sub Temp Dew Temp Wind Precip Traffic Updated
Sensor [A]: Atmospheric - 42.6 - - 41.4 - - - 10/23/2014 3:45:23 AM
Sensor [0]: US 35 WB Driving Lane Dry - 45.5 - - - - 6 / 59.0 10/23/2014 3:45:23 AM
Sensor [1]: US 35 EB Driving Lane Dry - 45.5 - - - - 3 / 50.3 10/23/2014 3:45:23 AM
Sensor [2]: SR32 Eastbound Driving Lane Bridgedeck Dry - 43.7 - - - - 4 / 44.7 10/23/2014 3:45:23 AM
Sensor [3]: SR32 Westbound Passing Lane Approach Dry - 41.9 - - - - 0 / 21.7 10/23/2014 3:45:23 AM
27-US52 @ Ice Creek (200026) Status Air Temp Sfc Temp Sub Temp Dew Temp Wind Precip Traffic Updated
Sensor [A]: Atmospheric - 51.4 - - 44.1 0.6 / N - - 10/21/2014 7:22:45 PM
Sensor [0]: SR52 East Bound Driving Lane Dry - 52.7 59.4 - - - 37 / 52.8 10/21/2014 7:22:45 PM
Sensor [1]: SR52 East Bound Passing Lane Dry - 51.8 - - - - 8 / 60.3 10/21/2014 7:22:45 PM
Sensor [2]: SR52 West Bound Passing Lane Dry - 52.7 - - - - 12 / 55.3 10/21/2014 7:22:45 PM
28-US23 @ SLM 6.5 (200027) Status Air Temp Sfc Temp Sub Temp Dew Temp Wind Precip Traffic Updated
Sensor [A]: Atmospheric - 44.8 - - 42.3 0.6 / SE - - 10/23/2014 2:59:14 AM
Sensor [0]: US23 NB Driving Dry - 51.1 61.0 - - - - 10/23/2014 2:59:14 AM
Sensor [1]: US23 SB Driving Dry - 51.3 - - - - - 10/23/2014 2:59:14 AM
29-US35 @ MM 14.76 (200028) Status Air Temp Sfc Temp Sub Temp Dew Temp Wind Precip Traffic Updated
Sensor [A]: Atmospheric - 43.5 - - 41.0 1.9 / SW - - 10/23/2014 3:29:34 AM
Sensor [0]: SR35 EB Driving Dry - 114.8 - - - - 35 / 62.8 9/8/2014 2:47:00 PM
Sensor [1]: SR35 WB Passing Error - - - - - - 0 / 47.2 9/8/2014 2:47:00 PM
Sensor [2]: SR35 WB Driving Dry - 68.0 - - - - 1 / 52.2 9/8/2014 2:47:00 PM
Sensor [3]: Bridge Deck Simulator Error - - 50.4 - - - 0 / 55.9 9/8/2014 2:47:00 PM
30-US23 @ SLM 9.2 (200029) Status Air Temp Sfc Temp Sub Temp Dew Temp Wind Precip Traffic Updated
Sensor [A]: Atmospheric - 58.3 - - 41.5 5.0 / N - - 10/22/2014 4:41:36 PM
Sensor [0]: US23 NB Passing Dry - 58.1 - - - - 10 / 34.8 10/22/2014 4:41:36 PM
Sensor [1]: US23 SB Passing Dry - 59.0 - - - - 15 / 55.3 10/22/2014 4:41:36 PM
Sensor [2]: US23 SB Driving Dry - 58.1 - - - - 33 / 55.9 10/22/2014 4:41:36 PM
31-USR 50 MM 17.68 (200030) Status Air Temp Sfc Temp Sub Temp Dew Temp Wind Precip Traffic Updated
Sensor [A]: Atmospheric - 40.6 - - 38.8 - - - 10/23/2014 3:40:50 AM
32-USR 35 @ SR 160 (200031) Status Air Temp Sfc Temp Sub Temp Dew Temp Wind Precip Traffic Updated
Sensor [A]: Atmospheric - 43.5 - - 41.0 - - - 10/23/2014 3:40:52 AM
Sensor [0]: SR35 NB Driving Dry - 50.9 - - - - - 10/23/2014 3:40:52 AM
Sensor [1]: SR35 SB Driving Dry - 49.1 - - - - - 10/23/2014 3:40:52 AM
33-US33@mm9.2 (200032) Status Air Temp Sfc Temp Sub Temp Dew Temp Wind Precip Traffic Updated
Sensor [A]: Atmospheric - 38.8 - - - - - - 10/23/2014 3:43:11 AM
Sensor [0]: US33 EB Driving Dry - 38.3 - - - - - 10/23/2014 3:43:11 AM
34-US33 @ OH7 (200033) Status Air Temp Sfc Temp Sub Temp Dew Temp Wind Precip Traffic Updated
Sensor [A]: Atmospheric - 45.0 - - 42.8 1.2 / W - - 10/23/2014 3:45:44 AM
Sensor [0]: US-33 EB Driving Departure Dry - 47.3 54.5 - - - - 10/23/2014 3:45:44 AM
Sensor [1]: US-33 EB Passing Bridgedeck Wet - 43.7 - - - - - 10/23/2014 3:45:44 AM
Sensor [2]: US-33 WB Driving Approach Dry - 47.3 - - - - - 10/23/2014 3:45:44 AM
35-SR7 @ SLM12.7 (200034) Status Air Temp Sfc Temp Sub Temp Dew Temp Wind Precip Traffic Updated
Sensor [A]: Atmospheric - 46.4 - - 43.0 - - - 10/23/2014 3:45:42 AM
Sensor [0]: SR7 NB Driving Lane Dry - 52.7 60.8 - - - - 10/23/2014 3:45:42 AM
Sensor [1]: SR7 SB Driving Lane Dry - 52.7 - - - - - 10/23/2014 3:45:42 AM
36-SR60 @ Monestary Rd (200035) Status Air Temp Sfc Temp Sub Temp Dew Temp Wind Precip Traffic Updated
Sensor [A]: Atmospheric - 43.2 - - 40.8 2.5 / NW - - 10/23/2014 3:45:40 AM
Sensor [0]: SR60 EB Lane Trace Moisture - 43.7 57.2 - - - - 10/23/2014 3:45:40 AM
Sensor [1]: SR60 WB Lane Dry - 43.7 - - - - - 10/23/2014 3:45:40 AM
37-SR32@SR160 (200036) Status Air Temp Sfc Temp Sub Temp Dew Temp Wind Precip Traffic Updated
Sensor [A]: Atmospheric - 40.8 - - 39.2 0.6 / N - - 10/23/2014 3:43:13 AM
Sensor [0]: SR32 WB Passing Bridgedeck Trace Moisture - 41.7 - - - - - 10/23/2014 3:43:13 AM
Sensor [1]: SR32 EB Driving Dry - 49.1 - - - - - 10/23/2014 3:43:13 AM
Sensor [2]: SR32 WB Driving Bridgedeck Dry - 47.3 - - - - - 10/23/2014 3:43:13 AM
38-SR43@SR9 (200037) Status Air Temp Sfc Temp Sub Temp Dew Temp Wind Precip Traffic Updated
Sensor [A]: Atmospheric - 43.9 - - 41.5 5.0 / W - - 10/23/2014 3:40:39 AM
Sensor [0]: SR43 NB Dry - 45.5 - - - - - 10/23/2014 3:40:39 AM
Sensor [1]: SR9 SB Dry - 45.5 - - - - - 10/23/2014 3:40:39 AM
39-SR11@SR267 (200038) Status Air Temp Sfc Temp Sub Temp Dew Temp Wind Precip Traffic Updated
Sensor [A]: Atmospheric - 43.9 - - 40.5 - - - 10/23/2014 3:40:48 AM
Sensor [0]: SR11 NB Driving Dry - 49.1 57.2 - - - - 10/23/2014 3:40:48 AM
Sensor [1]: SR11 SB Driving Dry - 49.1 - - - - - 10/23/2014 3:40:48 AM
40-Clinton County Garage (200039) Status Air Temp Sfc Temp Sub Temp Dew Temp Wind Precip Traffic Updated
Sensor [A]: Atmospheric - 45.3 - - 45.9 - - - 10/23/2014 3:45:37 AM
41- SR62@SR206 (200042) Status Air Temp Sfc Temp Sub Temp Dew Temp Wind Precip Traffic Updated
Sensor [A]: Atmospheric - 44.2 - - 41.2 1.9 / W - - 10/23/2014 3:41:35 AM
Sensor [0]: SR62 EB Dry - 40.1 - - - - 0 / 42.3 10/23/2014 3:41:35 AM
Sensor [1]: SR62 WB Dry - 40.1 - - - - 0 / 47.2 10/23/2014 3:41:35 AM
42- SR7@ SLM14.65 (200041) Status Air Temp Sfc Temp Sub Temp Dew Temp Wind Precip Traffic Updated
Sensor [A]: Atmospheric - 45.7 - - 41.2 1.2 / W - - 10/23/2014 3:40:41 AM
Sensor [0]: SR7 Passing Dry - 43.7 59.0 - - - - 10/23/2014 3:40:41 AM
Sensor [1]: SR7 NB Driving Dry - 49.1 - - - - - 10/23/2014 3:40:41 AM
Sensor [2]: SR7 SB Driving Dry - 49.1 - - - - - 10/23/2014 3:40:41 AM
51-I-70 @ 1.0 MM (200050) Status Air Temp Sfc Temp Sub Temp Dew Temp Wind Precip Traffic Updated
Sensor [A]: Atmospheric - 37.9 - - 36.9 - - - 10/23/2014 3:40:55 AM
Sensor [0]: IR70 East Bound Passing Lane Dry - 40.1 54.0 - - - 56 / 62.1 10/23/2014 3:40:55 AM
52-18 MM MOT/PRE (200051) Status Air Temp Sfc Temp Sub Temp Dew Temp Wind Precip Traffic Updated
Sensor [A]: Atmospheric - 38.5 - - 30.4 - - - 10/23/2014 3:40:58 AM
Sensor [0]: IR70 WB Passing Dry - 40.1 - - - - 56 / 57.8 10/23/2014 3:40:58 AM
Sensor [1]: IR70 EB Driving Dry - 47.3 - - - - 0 / 62.1 10/23/2014 3:40:58 AM
Sensor [2]: IR70 WB Driving Dry - 47.3 57.2 - - - 26 / 62.8 10/23/2014 3:40:58 AM
53-CLA-70 @ I675 ***Under Construction*** (200052) Status Air Temp Sfc Temp Sub Temp Dew Temp Wind Precip Traffic Updated
Sensor [A]: Atmospheric - 44.4 - - 39.7 - - - 10/23/2014 3:41:40 AM
54-IR70 MM 62 (200053) Status Air Temp Sfc Temp Sub Temp Dew Temp Wind Precip Traffic Updated
Sensor [A]: Atmospheric - 43.0 - - 39.6 1.9 / N - - 10/23/2014 3:44:33 AM
Sensor [0]: I70 EB Driving Dry - 47.3 57.2 - - - 0 / 9.9 10/23/2014 3:44:33 AM
Sensor [1]: I70 WB Passing Dry - 49.1 - - - - 0 / 9.9 10/23/2014 3:44:33 AM
55-IR70 MM 142 (200054) Status Air Temp Sfc Temp Sub Temp Dew Temp Wind Precip Traffic Updated
Sensor [A]: Atmospheric - 48.6 - - 48.2 3.1 / W - - 10/21/2014 3:51:05 AM
Sensor [0]: IR70 WB Passing Trace Moisture - 49.1 59.0 - - - 48 / 64.0 10/21/2014 3:51:05 AM
Sensor [1]: IR70 EB Driving Dry - 52.7 - - - - 35 / 39.8 10/21/2014 3:51:05 AM
Sensor [2]: IR70 WB Driving Dry - 52.7 - - - - 25 / 44.1 10/21/2014 3:51:05 AM
56-IR70 MM 169 (200055) Status Air Temp Sfc Temp Sub Temp Dew Temp Wind Precip Traffic Updated
Sensor [A]: Atmospheric - 43.3 - - 40.8 2.5 / W - - 10/23/2014 3:39:24 AM
Sensor [0]: IR70 EB Driving Dry - 49.1 57.2 - - - 4 / 18.0 10/23/2014 3:39:24 AM
57-IR70 MM 198 (200056) Status Air Temp Sfc Temp Sub Temp Dew Temp Wind Precip Traffic Updated
Sensor [A]: Atmospheric - 43.2 - - 41.4 - - - 10/23/2014 3:41:25 AM
Sensor [0]: IR70 EB Driving Dry - 47.3 52.7 - - - 40 / 57.2 10/23/2014 3:41:25 AM
Sensor [1]: IR70 EB Passing Dry - 45.5 - - - - 1 / 26.7 10/23/2014 3:41:25 AM
Sensor [2]: IR70 WB Passing Dry - 45.5 - - - - 20 / 57.8 10/23/2014 3:41:25 AM
58-IR470 MM 6 (200057) Status Air Temp Sfc Temp Sub Temp Dew Temp Wind Precip Traffic Updated
Sensor [A]: Atmospheric - 45.5 - - 42.8 - - - 10/23/2014 3:06:46 AM
Sensor [0]: IR470 EB Driving Dry - 50.9 57.2 - - - 30 / 44.1 10/23/2014 3:06:46 AM
Sensor [1]: IR470 WB Driving Dry - 50.9 - - - - 10 / 64.0 10/23/2014 3:06:46 AM
59- US 127 @ SR 744 (200058) Status Air Temp Sfc Temp Sub Temp Dew Temp Wind Precip Traffic Updated
Sensor [A]: Atmospheric - 39.0 - - 37.9 - - - 10/23/2014 3:26:28 AM
Sensor [0]: US127 NB Bridgedeck Dry - 43.3 - - - - 55 / 64.0 10/23/2014 3:26:28 AM
Sensor [1]: US127 SB Bridgedeck Dry - 43.7 - - - - 31 / 70.8 10/23/2014 3:26:28 AM
60-IR71 MM 62 (200059) Status Air Temp Sfc Temp Sub Temp Dew Temp Wind Precip Traffic Updated
Sensor [A]: Atmospheric - 43.7 - - 38.7 3.1 / W - - 10/23/2014 3:42:25 AM
Sensor [1]: IR71 NB Passing Bridgedeck Dry - 41.9 - - - - 0 / 65.2 10/23/2014 3:42:25 AM
Sensor [2]: IR71 SB Passing Dry - 41.9 - - - - 0 / 65.2 10/23/2014 3:42:25 AM
Sensor [3]: IR71 SB Center Dry - 50.9 - - - - 0 / 9.9 10/23/2014 3:42:25 AM
Sensor [4]: IR71 NB Driving Dry - 47.3 - - - - 0 / 9.9 10/23/2014 3:42:25 AM
61-IR71 MM 79 (200060) Status Air Temp Sfc Temp Sub Temp Dew Temp Wind Precip Traffic Updated
Sensor [A]: Atmospheric - 43.5 - - 38.7 - - - 10/23/2014 3:42:28 AM
Sensor [0]: IR71 NB Passing Dry - 45.5 49.1 - - - 1 / 65.2 10/23/2014 3:42:28 AM
Sensor [1]: IR71 SB Driving Wet - 45.5 - - - - 17 / 62.1 10/23/2014 3:42:28 AM
Sensor [2]: IR71 NB Driving Dry - 50.9 - - - - 0 / 9.9 10/23/2014 3:42:28 AM
62- Cemetary Rd. Over I-270 (200061) Status Air Temp Sfc Temp Sub Temp Dew Temp Wind Precip Traffic Updated
Sensor [A]: Atmospheric - 58.8 - - 54.5 3.1 / SW - - 10/7/2014 6:40:35 PM
Sensor [0]: I270 NB Driving Dry - 61.7 75.9 - - - 25 / 34.2 10/7/2014 6:40:35 PM
Sensor [1]: I270 NB Passing Dry - 62.6 - - - - 35 / 60.3 10/7/2014 6:40:35 PM
Sensor [2]: Cemetary Rd WB Passing Dry - 62.6 - - - - 0 / 59.0 10/7/2014 6:40:35 PM
63-I71 MM 144 ***Under Construction*** (200062) Status Air Temp Sfc Temp Sub Temp Dew Temp Wind Precip Traffic Updated
Sensor [A]: Atmospheric - 60.3 - - 47.3 6.2 / E - - 4/9/2013 9:12:09 AM
Sensor [0]: I71 NB Driving (Deck) Dry - 68.9 46.9 - - - 46 / 55.9 4/9/2013 9:12:09 AM
Sensor [1]: I71 NB Passing (Approach) Dry - 60.1 - - - - 0 / 5.0 4/9/2013 9:12:09 AM
Sensor [3]: I71 SB Driving (Departure) Dry - 63.3 - - - - 0 / 65.2 4/9/2013 9:12:09 AM
64-I71 MM 158 (200063) Status Air Temp Sfc Temp Sub Temp Dew Temp Wind Precip Traffic Updated
Sensor [A]: Atmospheric - 42.1 - - 39.4 1.9 / N - - 10/23/2014 2:43:11 AM
Sensor [0]: IR71 NB Driving Dry - 47.3 57.2 - - - 0 / 9.9 10/23/2014 2:43:11 AM
Sensor [1]: IR71 SB Driving Dry - 47.3 - - - - 0 / 9.9 10/23/2014 2:43:11 AM
65-IR71 MM 174 (200064) Status Air Temp Sfc Temp Sub Temp Dew Temp Wind Precip Traffic Updated
Sensor [A]: Atmospheric - 42.3 - - 39.9 4.3 / NW - - 10/23/2014 3:43:37 AM
Sensor [0]: IR71 NB Driving Dry - 41.9 45.5 - - - 11 / 57.2 10/23/2014 3:43:37 AM
Sensor [1]: IR71 NB Center Dry - 40.3 - - - - 3 / 57.2 10/23/2014 3:43:37 AM
Sensor [2]: IR71 SB Center Dry - 41.9 - - - - 4 / 54.1 10/23/2014 3:43:37 AM
66-IR71 MM 195.55 (200065) Status Air Temp Sfc Temp Sub Temp Dew Temp Wind Precip Traffic Updated
Sensor [A]: Atmospheric - 44.8 - - 41.7 1.2 / N - - 10/23/2014 3:41:13 AM
Sensor [0]: IR71 North Bound Driving Lane Dry - 43.7 56.3 - - - 4 / 55.3 10/23/2014 3:41:13 AM
Sensor [1]: IR71 South Bound Passing Lane Trace Moisture - 43.7 - - - - 0 / 54.1 10/23/2014 3:41:13 AM
Sensor [2]: IR71 South Bound Driving Lane Dry - 49.1 - - - - 0 / 21.7 10/23/2014 3:41:13 AM
67-IR71 MM 209 (200066) Status Air Temp Sfc Temp Sub Temp Dew Temp Wind Precip Traffic Updated
Sensor [A]: Atmospheric - 50.9 - - 48.7 0.6 / NW Rain / 0.0 - 10/20/2014 10:12:27 PM
Sensor [0]: IR71 NB Driving Trace Moisture - 54.5 59.0 - - - 0 / 9.9 10/20/2014 10:12:27 PM
Sensor [1]: IR71 SB Driving Bridgedeck Trace Moisture - 54.5 - - - - 0 / 9.9 10/20/2014 10:12:27 PM
68-IR271 @ IR77 (200067) Status Air Temp Sfc Temp Sub Temp Dew Temp Wind Precip Traffic Updated
Sensor [A]: Atmospheric - 45.7 - - 41.9 4.3 / W - - 10/23/2014 3:44:10 AM
Sensor [0]: I271 SB Passing Bridgedeck Dry - 41.7 - - - - 2 / 26.7 10/23/2014 3:44:10 AM
69-IR275 MM 21 (200068) Status Air Temp Sfc Temp Sub Temp Dew Temp Wind Precip Traffic Updated
Sensor [A]: Atmospheric - 43.2 - - 40.8 - - - 10/23/2014 3:42:31 AM
Sensor [0]: I275 MM21 NB Driving Dry - 47.3 57.0 - - - 4 / 60.9 10/23/2014 3:42:31 AM
70-IR275 HAM/CLER (200069) Status Air Temp Sfc Temp Sub Temp Dew Temp Wind Precip Traffic Updated
Sensor [A]: Atmospheric - 46.6 - - 41.5 - - - 10/23/2014 3:40:12 AM
71-I675 MONT/GRE (200070) Status Air Temp Sfc Temp Sub Temp Dew Temp Wind Precip Traffic Updated
Sensor [A]: Atmospheric - 44.6 - - 38.1 5.6 / SW - - 10/23/2014 3:41:40 AM
Sensor [0]: I675 NB Center Dry - - - - - - 46 / 60.9 10/23/2014 3:41:40 AM
Sensor [1]: I675 SB Passing Dry - 49.1 - - - - 97 / 62.8 10/23/2014 3:41:40 AM
72-18 MM BUT/HAM (200071) Status Air Temp Sfc Temp Sub Temp Dew Temp Wind Precip Traffic Updated
Sensor [A]: Atmospheric - 46.8 - - 39.9 0.6 / NE - - 10/23/2014 3:41:28 AM
Sensor [0]: IR75 NB Passing Dry - 49.1 60.8 - - - - 10/23/2014 3:41:28 AM
Sensor [1]: IR75 SB Driving Dry - 52.7 - - - - - 10/23/2014 3:41:28 AM
73-I75mm27.5 SB (200072) Status Air Temp Sfc Temp Sub Temp Dew Temp Wind Precip Traffic Updated
Sensor [A]: Atmospheric - 48.9 - - 39.6 6.2 / N - - 10/22/2014 10:20:47 PM
Sensor [0]: IR75 NB Driving Dry - 56.3 - - - - - 10/22/2014 10:20:47 PM
Sensor [1]: IR75 SB Driving Dry - 56.3 - - - - - 10/22/2014 10:20:47 PM
74-IR75 MM 40 (200073) Status Air Temp Sfc Temp Sub Temp Dew Temp Wind Precip Traffic Updated
Sensor [A]: Atmospheric - 42.6 - - 39.4 0.6 / N - - 10/23/2014 3:41:42 AM
Sensor [0]: IR75 NB Driving Dry - 49.1 59.0 - - - 26 / 14.3 10/23/2014 3:41:42 AM
Sensor [1]: IR75 SB Driving Dry - 49.1 - - - - 9 / 19.3 10/23/2014 3:41:42 AM
75-SR16@COS/MUS (200074) Status Air Temp Sfc Temp Sub Temp Dew Temp Wind Precip Traffic Updated
Sensor [A]: Atmospheric - 41.4 - - 39.7 1.2 / NW - - 10/23/2014 3:40:50 AM
Sensor [0]: SR16 EB Driving Bridgedeck Dry - 41.9 45.5 - - - - 10/23/2014 3:40:50 AM
76-IR75 MM 84 (200075) Status Air Temp Sfc Temp Sub Temp Dew Temp Wind Precip Traffic Updated
Sensor [A]: Atmospheric - 42.6 - - 40.8 - - - 10/23/2014 3:43:34 AM
Sensor [0]: IR75 North Bound Driving Lane Dry - 45.5 77.9 - - - 24 / 55.3 10/23/2014 3:43:34 AM
Sensor [1]: IR75 North Bound Passing Lane Dry - 43.7 - - - - 2 / 60.9 10/23/2014 3:43:34 AM
77-IR75 MM 105 (200076) Status Air Temp Sfc Temp Sub Temp Dew Temp Wind Precip Traffic Updated
Sensor [A]: Atmospheric - 39.7 - - 39.4 - - - 10/23/2014 3:42:09 AM
Sensor [0]: IR75 NB Driving Dry - 45.5 54.5 - - - 0 / 9.9 10/23/2014 3:42:09 AM
Sensor [1]: IR75 SB Driving Dry - 45.5 - - - - 0 / 9.9 10/23/2014 3:42:09 AM
78-IR75 MM 119 (200077) Status Air Temp Sfc Temp Sub Temp Dew Temp Wind Precip Traffic Updated
Sensor [A]: Atmospheric - 37.8 - - 37.0 - - - 10/23/2014 3:42:13 AM
Sensor [0]: IR75 NB Driving Dry - 45.5 54.5 - - - 0 / 9.9 10/23/2014 3:42:13 AM
Sensor [1]: IR75 SB Driving Dry - 45.5 - - - - 0 / 9.9 10/23/2014 3:42:13 AM
79-IR75 MM 141 (200078) Status Air Temp Sfc Temp Sub Temp Dew Temp Wind Precip Traffic Updated
Sensor [A]: Atmospheric - 40.3 - - 37.4 1.9 / SW - - 10/23/2014 3:44:58 AM
Sensor [0]: IR75 NB Driving Dry - 47.3 56.3 - - - 0 / 9.9 10/23/2014 3:44:58 AM
Sensor [1]: IR75 SB Driving Dry - 47.3 - - - - 0 / 9.9 10/23/2014 3:44:58 AM
80-IR77 MM 0 (200079) Status Air Temp Sfc Temp Sub Temp Dew Temp Wind Precip Traffic Updated
Sensor [A]: Atmospheric - 43.9 - - 42.6 0.6 / NE - - 10/23/2014 3:38:23 AM
Sensor [0]: I77 SB Driving Lane Dry - 50.5 - - - - - 10/23/2014 3:38:23 AM
81-IR77 MM 16 (200080) Status Air Temp Sfc Temp Sub Temp Dew Temp Wind Precip Traffic Updated
Sensor [A]: Atmospheric - 45.9 - - 44.2 4.3 / N - - 10/22/2014 2:22:44 AM
Sensor [0]: IR77 SB Driving Dry - 49.3 - - - - - 10/22/2014 2:22:44 AM
82-IR77 MM 36 (200081) Status Air Temp Sfc Temp Sub Temp Dew Temp Wind Precip Traffic Updated
Sensor [A]: Atmospheric - 40.3 - - 39.9 - - - 10/23/2014 3:00:12 AM
Sensor [0]: IR77 SB Driving Trace Moisture - 46.2 56.8 - - - 27 / 64.0 10/23/2014 3:00:12 AM
Sensor [1]: IR77 NB Driving Dry - 45.9 - - - - 0 / 52.8 10/23/2014 3:00:12 AM
83-IR77 MM 59 (200082) Status Air Temp Sfc Temp Sub Temp Dew Temp Wind Precip Traffic Updated
Sensor [A]: Atmospheric - 43.2 - - 41.4 0.6 / N - - 10/23/2014 3:45:46 AM
Sensor [0]: IR77 NB Driving Dry - 47.3 57.2 - - - 0 / 5.0 10/23/2014 3:45:46 AM
Sensor [1]: IR77 SB Driving Dry - 47.3 - - - - 0 / 5.0 10/23/2014 3:45:46 AM
84-IR77 MM 93 UNDER CONSTRUCTION (200083) Status Air Temp Sfc Temp Sub Temp Dew Temp Wind Precip Traffic Updated
Sensor [A]: Atmospheric - 42.3 - - 41.9 0.6 / NW - - 10/23/2014 3:12:11 AM
Sensor [0]: IR77 North Bound Driving Lane No Report - - - - - - 0 / 52.8 9/24/2014 11:16:29 PM
Sensor [1]: IR77 North Bound Passing Lane Error - - - - - - 0 / 6.8 9/22/2014 10:50:39 AM
Sensor [2]: IR77 South Bound Passing Lane Bridge Error - - - - - - 0 / 9.9 9/22/2014 10:50:39 AM
Sensor [3]: IR77 South Bound Driving Lane Bridge Error - - - - - - 64 / 65.2 9/22/2014 10:50:39 AM
85-SR2 @ Huron River (200084) Status Air Temp Sfc Temp Sub Temp Dew Temp Wind Precip Traffic Updated
Sensor [A]: Atmospheric - 46.0 - - 42.4 1.9 / S - - 10/23/2014 3:46:14 AM
Sensor [0]: SR2 WB Passing Dry - 45.1 57.2 - - - 8959 / 154.1 10/23/2014 3:46:14 AM
Sensor [1]: SR2 EB Driving Departure Dry - 50.9 - - - - 1 / 5.0 10/23/2014 3:46:14 AM
86-IR90 @ SR57 (200085) Status Air Temp Sfc Temp Sub Temp Dew Temp Wind Precip Traffic Updated
Sensor [A]: Atmospheric - 47.1 - - 44.4 1.2 / NW - - 10/23/2014 2:22:18 AM
Sensor [0]: IR90 EB Driving Dry - 49.1 55.4 - - - 34 / 6.2 10/23/2014 2:22:18 AM
Sensor [1]: IR90 WB Driving Dry - 49.3 - - - - 0 / 5.0 10/23/2014 2:22:18 AM
87-IR90 ATB/LAKE (200086) Status Air Temp Sfc Temp Sub Temp Dew Temp Wind Precip Traffic Updated
Sensor [A]: Atmospheric - 43.2 - - 40.6 1.2 / W - - 10/23/2014 3:46:17 AM
Sensor [0]: I90 EB Passing Dry - 41.7 54.5 - - - 92 / 62.1 10/23/2014 3:46:17 AM
Sensor [1]: I90 EB Driving Dry - 47.3 - - - - 2 / 5.0 10/23/2014 3:46:17 AM
Sensor [2]: I90 WB Passing Dry - 47.3 - - - - 52 / 59.0 10/23/2014 3:46:17 AM
88-IR90 @ SR11 (200087) Status Air Temp Sfc Temp Sub Temp Dew Temp Wind Precip Traffic Updated
Sensor [A]: Atmospheric - 47.1 - - 43.5 3.7 / N - - 10/23/2014 3:47:24 AM
Sensor [0]: IR90 EB Passing Dry - 141.8 - - - - 0 / 158.4 10/23/2014 3:47:24 AM
Sensor [1]: IR90 WB Passing Dry - 146.3 - - - - 31 / 65.2 10/23/2014 3:47:24 AM
89-IR90 @ PA Line (200088) Status Air Temp Sfc Temp Sub Temp Dew Temp Wind Precip Traffic Updated
Sensor [A]: Atmospheric - 49.1 - - 45.0 3.1 / NE - - 10/23/2014 3:30:03 AM
Sensor [0]: IR90 EB Driving Bridgedeck Dry - 46.8 55.2 - - - - 10/23/2014 3:30:03 AM
Sensor [1]: IR90 EB Passing Dry - 47.3 - - - - - 10/23/2014 3:30:03 AM
Sensor [2]: IR90 WB Passing Bridgedeck Dry - 46.0 - - - - - 10/23/2014 3:30:03 AM
Sensor [3]: IR90 WB Driving Dry - 49.1 - - - - - 10/23/2014 3:30:03 AM
90-IR80 @ PA Line (200089) Status Air Temp Sfc Temp Sub Temp Dew Temp Wind Precip Traffic Updated
Sensor [A]: Atmospheric - 48.7 - - 43.2 3.7 / N - - 10/22/2014 3:48:33 PM
Sensor [0]: IR80 EB Driving Dry - 56.7 56.3 - - - 21 / 49.1 10/22/2014 3:48:33 PM
Sensor [1]: IR80 WB Driving Dry - 56.5 - - - - 0 / 47.8 10/22/2014 3:48:33 PM
91-IR76 MAH/POR (200090) Status Air Temp Sfc Temp Sub Temp Dew Temp Wind Precip Traffic Updated
Sensor [A]: Atmospheric - 44.6 - - 41.9 3.7 / NW - - 10/23/2014 3:46:20 AM
Sensor [0]: IR76 EB Passing Dry - 42.4 56.3 - - - 6 / 9.9 10/23/2014 3:46:20 AM
Sensor [1]: IR76 WB Passing Bridgedeck Trace Moisture - 47.3 - - - - 22 / 55.9 10/23/2014 3:46:20 AM
Sensor [2]: IR76 EB Driving Dry - 45.5 - - - - 17 / 64.0 10/23/2014 3:46:20 AM
Sensor [3]: IR76 WB Driving Bridgedeck Dry - 47.3 - - - - 43 / 64.0 10/23/2014 3:46:20 AM
92-IR76 POR/SUM (200091) Status Air Temp Sfc Temp Sub Temp Dew Temp Wind Precip Traffic Updated
Sensor [A]: Atmospheric - 43.3 - - 41.9 1.9 / NW - - 10/23/2014 3:31:39 AM
Sensor [0]: IR76 EB passing Bridgedeck Dry - 41.9 - - - - 0 / 65.2 10/23/2014 3:31:39 AM
Sensor [2]: IR76 WB Driving Dry - 49.1 - - - - 0 / 64.0 10/23/2014 3:31:39 AM
94-SR11 ATB/TRUM (200093) Status Air Temp Sfc Temp Sub Temp Dew Temp Wind Precip Traffic Updated
Sensor [A]: Atmospheric - 43.3 - - 42.1 1.9 / W - - 10/23/2014 3:23:51 AM
Sensor [0]: SR11 NB Driving No Report - - - - - - 22 / 64.0 10/23/2014 3:23:51 AM
Sensor [1]: SR11 SB Driving No Report - - - - - - 2 / 9.9 10/23/2014 3:23:51 AM
95-SR11 MAH/COL (200094) Status Air Temp Sfc Temp Sub Temp Dew Temp Wind Precip Traffic Updated
Sensor [A]: Atmospheric - 44.2 - - 41.5 3.7 / NW - - 10/23/2014 3:41:39 AM
Sensor [0]: SR11 NB Driving Dry - 45.3 54.7 - - - 0 / 64.0 10/23/2014 3:41:39 AM
Sensor [1]: SR11 SB Driving Dry - 46.2 - - - - 0 / 9.9 10/23/2014 3:41:39 AM
97-SR315 @ I270 (200096) Status Air Temp Sfc Temp Sub Temp Dew Temp Wind Precip Traffic Updated
Sensor [A]: Atmospheric - 42.6 - - 40.1 - - - 10/23/2014 3:40:10 AM
Sensor [0]: I270 WB Driving Dry - 41.9 - - - - 4 / 26.7 10/23/2014 3:40:10 AM
Sensor [1]: I270 WB Passing Dry - 47.3 - - - - 0 / 42.3 10/23/2014 3:40:10 AM
Sensor [2]: IR Ice Detection Sensor Dry - - - - - - 6 / 60.3 10/23/2014 3:40:10 AM
98-I270 SB Ramp to SR161 EB (200097) Status Air Temp Sfc Temp Sub Temp Dew Temp Wind Precip Traffic Updated
Sensor [A]: Atmospheric - 48.7 - - 42.3 6.8 / SE - - 10/21/2014 5:01:02 PM
Sensor [0]: SR161 WB Passing Bridgedeck Dry - 52.7 - - - - 29 / 60.9 10/21/2014 5:01:02 PM
Sensor [1]: SR161 WB Driving Dry - 52.7 - - - - 0 / 50.3 10/21/2014 5:01:02 PM
Sensor [3]: I270 SB to SR161 EB Flyover Ramp Dry - 56.3 - - - - 106 / 57.8 10/21/2014 5:01:02 PM
99-US30 @ Dalton (200098) Status Air Temp Sfc Temp Sub Temp Dew Temp Wind Precip Traffic Updated
Sensor [A]: Atmospheric - 45.3 - - 42.8 - - - 10/23/2014 3:39:00 AM
Sensor [0]: US30E Driving Lane Error - - 61.3 - - - 0 / 50.3 10/23/2014 3:39:00 AM
Sensor [1]: US30E Passing Lane Dry - 46.4 - - - - 0 / 47.2 10/23/2014 3:39:00 AM
Sensor [2]: US30W Passing Lane - Bridgedeck Dry - 41.0 - - - - 0 / 57.2 10/23/2014 3:39:00 AM
Sensor [3]: US30W Driving Lane - Bridgedeck Error - - - - - - 761 / 62.1 10/23/2014 3:39:00 AM
100-SR225 @ Berlin Reservoir (200099) Status Air Temp Sfc Temp Sub Temp Dew Temp Wind Precip Traffic Updated
Sensor [A]: Atmospheric - 50.0 - - 48.2 3.1 / SW - - 10/20/2014 8:28:30 PM
Sensor [0]: SR225 NB Lane Trace Moisture - 52.9 59.0 - - - 0 / 65.2 10/20/2014 8:28:30 PM
Sensor [1]: SR225 SB Bridgedeck No Report - - - - - - 4 / 9.9 10/20/2014 8:28:30 PM
101-SR45 @ Rock Creek (200100) Status Air Temp Sfc Temp Sub Temp Dew Temp Wind Precip Traffic Updated
Sensor [A]: Atmospheric - 42.4 - - 40.8 - - - 10/23/2014 3:46:22 AM
102-SR7 @ SR167 East (200101) Status Air Temp Sfc Temp Sub Temp Dew Temp Wind Precip Traffic Updated
Sensor [A]: Atmospheric - 58.5 - - 56.3 3.7 / S - - 10/15/2014 10:52:46 AM
Sensor [0]: SR7 NB Dry - 61.3 - - - - 6 / 42.3 10/15/2014 10:52:46 AM
Sensor [1]: SR7 SB Bridgedeck Dry - 62.1 - - - - 0 / 5.0 10/15/2014 10:52:46 AM
103- I-70 @ SR-79 (200102) Status Air Temp Sfc Temp Sub Temp Dew Temp Wind Precip Traffic Updated
Sensor [A]: Atmospheric - 42.8 - - 40.6 0.6 / W - - 10/23/2014 3:41:33 AM
Sensor [0]: SR79 NB Bridgedeck Trace Moisture - 38.3 57.2 - - - 83 / 51.0 10/23/2014 3:41:33 AM
Sensor [1]: SR79 SB Bridgedeck Dry - 43.7 - - - - 36 / 50.3 10/23/2014 3:41:33 AM
Sensor [2]: IR70 EB Driving Dry - 47.3 - - - - 32 / 60.3 10/23/2014 3:41:33 AM
104-SR 3 KNOX/Ashland (200103) Status Air Temp Sfc Temp Sub Temp Dew Temp Wind Precip Traffic Updated
Sensor [A]: Atmospheric - 43.2 - - 42.3 9.9 / W - - 10/21/2014 10:30:30 PM
Sensor [0]: SR3 SB Trace Moisture - 46.9 55.9 - - - 2 / 52.2 10/21/2014 10:30:30 PM
105-IR70/IR75 (200104) Status Air Temp Sfc Temp Sub Temp Dew Temp Wind Precip Traffic Updated
Sensor [A]: Atmospheric - 43.0 - - 34.5 1.9 / NW - - 10/23/2014 3:41:30 AM
106-SR39 @ Sugarcreek (200105) Status Air Temp Sfc Temp Sub Temp Dew Temp Wind Precip Traffic Updated
Sensor [A]: Atmospheric - 44.6 - - 43.0 0.6 / NE - - 10/23/2014 3:00:27 AM
Sensor [0]: SR39 EB Lane Dry - 48.0 - - - - 6 / 51.0 10/23/2014 3:00:27 AM
Sensor [1]: SR39 WB Lane Dry - 47.7 56.3 - - - 131 / 47.8 10/23/2014 3:00:27 AM
107-US250 @ Ulrichsville (200106) Status Air Temp Sfc Temp Sub Temp Dew Temp Wind Precip Traffic Updated
Sensor [A]: Atmospheric - 43.3 - - - - - - 10/23/2014 3:45:49 AM
Sensor [0]: US250 EB Driving Dry - 49.1 57.2 - - - 0 / 5.0 10/23/2014 3:45:49 AM
Sensor [1]: US250 WB Driving Dry - 49.1 - - - - 0 / 5.0 10/23/2014 3:45:49 AM
108-SR183 @ Minerva (200107) Status Air Temp Sfc Temp Sub Temp Dew Temp Wind Precip Traffic Updated
Sensor [A]: Atmospheric - 46.9 - - 45.7 1.9 / NE - - 10/22/2014 12:41:08 AM
Sensor [0]: SR183 NB Bridgedeck Trace Moisture - 47.5 56.5 - - - 9 / 70.8 10/22/2014 12:41:08 AM
Sensor [1]: SR183 SB Trace Moisture - 49.5 - - - - 4 / 9.9 10/22/2014 12:41:08 AM
109-SR22 @ SR151 (200108) Status Air Temp Sfc Temp Sub Temp Dew Temp Wind Precip Traffic Updated
Sensor [A]: Atmospheric - 44.8 - - 42.1 3.7 / SE - - 10/23/2014 3:45:53 AM
Sensor [0]: SR22E Driving Lane Dry - 45.5 45.5 - - - 19 / 67.1 10/23/2014 3:45:53 AM
Sensor [1]: SR22W Passing Lane Dry - 47.3 - - - - 2 / 73.9 10/23/2014 3:45:53 AM
110-SR7 @ SR213 (200109) Status Air Temp Sfc Temp Sub Temp Dew Temp Wind Precip Traffic Updated
Sensor [A]: Atmospheric - 46.4 - - 43.3 0.6 / S - - 10/23/2014 3:12:25 AM
Sensor [0]: SR7 NB Driving Dry - 50.0 59.2 - - - 6 / 42.3 10/23/2014 3:12:25 AM
111-I70 MM 114 (200110) Status Air Temp Sfc Temp Sub Temp Dew Temp Wind Precip Traffic Updated
Sensor [A]: Atmospheric - 43.7 - - 40.5 - - - 10/23/2014 3:40:52 AM
112-USR 27 @ 21 MM (200111) Status Air Temp Sfc Temp Sub Temp Dew Temp Wind Precip Traffic Updated
Sensor [A]: Atmospheric - 36.9 - - 34.7 0.6 / N - - 10/23/2014 3:42:34 AM
Sensor [0]: SR27 NB Lane Dry - 40.1 56.5 - - - 1 / 5.0 10/23/2014 3:42:34 AM
Sensor [1]: SR27 SB Lane Dry - 38.3 - - - - 0 / 57.2 10/23/2014 3:42:34 AM
113-I-275 @ USR 52 (200112) Status Air Temp Sfc Temp Sub Temp Dew Temp Wind Precip Traffic Updated
Sensor [A]: Atmospheric - 53.8 - - 40.3 1.9 / E - - 10/22/2014 5:30:13 PM
Sensor [0]: I275 SB Driving Bridgedeck Dry - 63.5 - - - - 28 / 60.3 10/22/2014 5:30:13 PM
114-IR71 @ US36 (38000) Status Air Temp Sfc Temp Sub Temp Dew Temp Wind Precip Traffic Updated
Sensor [A]: Atmospheric - 41.7 - - 36.7 3.7 / N - - 10/23/2014 3:41:13 AM
Sensor [0]: I71 SB Driving Dry - 40.1 - - - - - 10/23/2014 3:41:13 AM
115-IR71 @ Schrock Road (38001) Status Air Temp Sfc Temp Sub Temp Dew Temp Wind Precip Traffic Updated
Sensor [A]: Atmospheric - 53.1 - - 53.1 5.6 / NW - - 10/23/2014 3:41:16 AM
Sensor [0]: Schrock Rd Approach Dry - 44.6 - - - - - 10/23/2014 3:41:16 AM
Sensor [1]: Schrock Rd Bridgedeck Dry - 41.9 - - - - - 10/23/2014 3:41:16 AM
116-IR70W @ I270 (38004) Status Air Temp Sfc Temp Sub Temp Dew Temp Wind Precip Traffic Updated
Sensor [A]: Atmospheric - - - - - 2.5 / N - - 10/23/2014 3:41:17 AM
Sensor [0]: I-70 EB Drive Error - - - - - - - 10/23/2014 3:41:17 AM
117-IR70 @ SR29 (38005) Status Air Temp Sfc Temp Sub Temp Dew Temp Wind Precip Traffic Updated
Sensor [A]: Atmospheric - 43.5 - - 36.0 1.9 / N - - 10/23/2014 3:41:19 AM
Sensor [0]: SR29 NB Bridgedeck Dry - 49.1 - - - - - 10/23/2014 3:41:19 AM
Sensor [1]: I70 EB Passing Dry - 45.5 - - - - - 10/23/2014 3:41:19 AM
Sensor [2]: I70 WB Driving Dry - 46.2 - - - - - 10/23/2014 3:41:19 AM
118-IR70/IR71/SR315 (38006) Status Air Temp Sfc Temp Sub Temp Dew Temp Wind Precip Traffic Updated
Sensor [A]: Atmospheric - 45.1 - - 38.8 3.7 / N - - 10/23/2014 3:36:39 AM
Sensor [0]: I70 WB to I71 SB Ramp Dry - 48.4 - - - - - 10/23/2014 3:36:39 AM
Sensor [1]: I70 EB to SR315 Ramp Trace Moisture - 41.9 - - - - - 10/23/2014 3:36:39 AM
Sensor [3]: I70 WB Driving Dry - 50.9 - - - - - 10/23/2014 3:36:39 AM
119-IR71S @ I270 (38007) Status Air Temp Sfc Temp Sub Temp Dew Temp Wind Precip Traffic Updated
Sensor [A]: Atmospheric - 33.1 - - 23.2 7.5 / N - - 1/20/2014 7:31:46 AM
Sensor [2]: I270 EB Passing Error - - - - - - - 1/20/2014 7:31:46 AM
120-US33 @ Hamilton Road (38010) Status Air Temp Sfc Temp Sub Temp Dew Temp Wind Precip Traffic Updated
Sensor [A]: Atmospheric - 44.6 - - 34.3 3.7 / SW - - 10/23/2014 3:41:45 AM
Sensor [0]: US33 EB Driving Dry - 41.9 - - - - - 10/23/2014 3:41:45 AM
Sensor [1]: US33 EB Passing Dry - 49.1 - - - - - 10/23/2014 3:41:45 AM
121-I-670 Over Airport Connector (38014) Status Air Temp Sfc Temp Sub Temp Dew Temp Wind Precip Traffic Updated
Sensor [A]: Atmospheric - 43.2 - - 38.1 3.7 / N - - 10/23/2014 3:41:48 AM
Sensor [0]: Airport Connector Bridgedeck Dry - 42.1 - - - - - 10/23/2014 3:41:48 AM
Sensor [1]: I670 EB Passing Dry - 42.3 - - - - - 10/23/2014 3:41:48 AM
Sensor [2]: I670 WB Passing Dry - 42.8 - - - - - 10/23/2014 3:41:48 AM
122-Medina Line Rd. Over I-271 (612000) Status Air Temp Sfc Temp Sub Temp Dew Temp Wind Precip Traffic Updated
Sensor [A]: Atmospheric - 43.9 - - 42.3 1.9 / W - - 10/23/2014 3:20:07 AM
Sensor [0]: SB Bridge Trace Moisture - 42.4 - - - - - 10/23/2014 3:20:07 AM
Sensor [1]: SB Road Dry - 45.5 - - - - - 10/23/2014 3:20:07 AM
123-Steels Corner Rd. /Mud Creek (612003) Status Air Temp Sfc Temp Sub Temp Dew Temp Wind Precip Traffic Updated
Sensor [A]: Atmospheric - 43.9 - - 43.2 0.6 / NW - - 10/23/2014 3:20:10 AM
Sensor [0]: WB Bridge Trace Moisture - 43.7 - - - - - 10/23/2014 3:20:10 AM
Sensor [1]: WB Road Dry - 47.3 49.1 - - - - 10/23/2014 3:20:10 AM
124-Old Mill Rd. Over I-480 (612004) Status Air Temp Sfc Temp Sub Temp Dew Temp Wind Precip Traffic Updated
Sensor [A]: Atmospheric - 45.1 - - 44.2 0.6 / NW - - 10/23/2014 3:20:12 AM
125-Ridgewood Rd. Over Rt 21 (612006) Status Air Temp Sfc Temp Sub Temp Dew Temp Wind Precip Traffic Updated
Sensor [A]: Atmospheric - 46.4 - - 45.1 3.1 / NW - - 10/23/2014 3:20:15 AM
Sensor [0]: EB Bridge Deck Dry - 45.5 - - - - - 10/23/2014 3:20:15 AM
126-Killian Rd. Over I-77 (612011) Status Air Temp Sfc Temp Sub Temp Dew Temp Wind Precip Traffic Updated
Sensor [A]: Atmospheric - 46.6 - - 44.1 3.1 / NW - - 10/23/2014 3:20:17 AM
Sensor [0]: EB Bridge Trace Moisture - 43.3 55.6 - - - - 10/23/2014 3:20:17 AM
127-US 6 Williams County (582000) Status Air Temp Sfc Temp Sub Temp Dew Temp Wind Precip Traffic Updated
Sensor [A]: Atmospheric - 32.2 - - - 11.8 / E - - 10/23/2014 3:40:23 AM
Sensor [0]: US-6 EB Lane Dry - 32.9 - - - - 1 / 37.3 10/23/2014 3:40:23 AM
Sensor [2]: US6 EB Dry - 36.9 52.5 - - - - 10/23/2014 3:40:23 AM
128-US 20 @ SLM 1.5 ***Under Construction*** (582001) Status Air Temp Sfc Temp Sub Temp Dew Temp Wind Precip Traffic Updated
Sensor [A]: Atmospheric - 31.3 - - 30.7 - - - 10/23/2014 3:40:25 AM
Sensor [0]: US-20 EB Dry - 32.0 - - - - - 10/23/2014 3:40:25 AM
129-US 20 @ SLM 11.5 (582002) Status Air Temp Sfc Temp Sub Temp Dew Temp Wind Precip Traffic Updated
Sensor [A]: Atmospheric - 31.5 - - 31.5 - - - 10/23/2014 3:40:27 AM
Sensor [2]: SR-20A WB Approach Dry - 35.6 54.0 - - - - 10/23/2014 3:40:27 AM
Sensor [3]: SR-20A WB Deck Trace Moisture - 34.5 - - - - - 10/23/2014 3:40:27 AM
130-US 20A @ SLM 2.5 Fulton (582003) Status Air Temp Sfc Temp Sub Temp Dew Temp Wind Precip Traffic Updated
Sensor [A]: Atmospheric - 30.4 - - -19.8 1.2 / SW - - 10/23/2014 3:40:35 AM
Sensor [0]: US-20 EB Deck Dry - 36.3 - - - - - 10/23/2014 3:40:35 AM
Sensor [1]: US-20 EB Approach Dry - 40.3 - - - - - 10/23/2014 3:40:35 AM
131-US 20 @ SLM 9.5 Fulton (582004) Status Air Temp Sfc Temp Sub Temp Dew Temp Wind Precip Traffic Updated
Sensor [A]: Atmospheric - 31.5 - - - - - - 10/23/2014 3:40:38 AM
Sensor [0]: US-20 WB Deck Dry - 34.5 - - - - - 10/23/2014 3:40:38 AM
Sensor [1]: US-20 EB Approach Dry - 38.3 - - - - - 10/23/2014 3:40:38 AM
132-SR 64 @ SLM 6.0 Fulton (582005) Status Air Temp Sfc Temp Sub Temp Dew Temp Wind Precip Traffic Updated
Sensor [A]: Atmospheric - 33.8 - - 33.8 4.3 / NW - - 10/23/2014 3:40:40 AM
133-US 6 @ SLM .5 (582006) Status Air Temp Sfc Temp Sub Temp Dew Temp Wind Precip Traffic Updated
Sensor [A]: Atmospheric - 31.6 - - 31.6 3.1 / W - - 10/23/2014 3:40:43 AM
Sensor [0]: US-6 WB Dry - 37.9 57.2 - - - - 10/23/2014 3:40:43 AM
134-SR 108 @ SLM .5 (582007) Status Air Temp Sfc Temp Sub Temp Dew Temp Wind Precip Traffic Updated
Sensor [A]: Atmospheric - 33.3 - - 33.1 3.7 / W - - 10/23/2014 3:40:08 AM
Sensor [0]: SR-108 NB Dry - 32.0 56.3 - - - - 10/23/2014 3:40:08 AM
135-US Rt 6 @ Maumee River (582008) Status Air Temp Sfc Temp Sub Temp Dew Temp Wind Precip Traffic Updated
Sensor [A]: Atmospheric - 37.6 - - 37.6 1.2 / N - - 10/23/2014 3:40:10 AM
Sensor [0]: US-6 EB Deck Error - 36.9 - - - - - 10/23/2014 3:40:10 AM
Sensor [1]: US-6 WB Deck Error - - - - - - - 10/23/2014 3:40:10 AM
136-Rt 65 South Henry County (582009) Status Air Temp Sfc Temp Sub Temp Dew Temp Wind Precip Traffic Updated
Sensor [A]: Atmospheric - 32.5 - - 31.5 3.1 / SW - - 10/23/2014 3:40:12 AM
137 - SR 64 @ SLM 7.5 Lucas (582010) Status Air Temp Sfc Temp Sub Temp Dew Temp Wind Precip Traffic Updated
Sensor [A]: Atmospheric - 34.9 - - 34.9 - - - 10/23/2014 3:40:15 AM
Sensor [0]: SR-64 EB Approach Dry - 40.5 - - - - - 10/23/2014 3:40:15 AM
Sensor [1]: SR-64 EB @ RPU Dry - 39.4 - - - - - 10/23/2014 3:40:15 AM
138-US 24 near Grand Rapids (582011) Status Air Temp Sfc Temp Sub Temp Dew Temp Wind Precip Traffic Updated
Sensor [A]: Atmospheric - 36.9 - - 36.9 - - - 10/23/2014 3:40:17 AM
Sensor [0]: SR-578 SB Maumee River Dry - 39.0 56.5 - - - - 10/23/2014 3:40:17 AM
Sensor [1]: SR-578 SB Dry - 41.4 - - - - - 10/23/2014 3:40:17 AM
139-I-80 & I-475 Lucas ***Under Construction*** (582012) Status Air Temp Sfc Temp Sub Temp Dew Temp Wind Precip Traffic Updated
Sensor [A]: Atmospheric - 72.1 - - 71.6 1.9 / SW - - 10/3/2013 12:40:42 PM
Sensor [0]: I-475 NB Deck Dry - 77.0 - - - - - 10/3/2013 12:40:42 PM
Sensor [1]: I-475 SB Approach Error - - - - - - - 10/3/2013 12:40:42 PM
140-IR 475 @ US 23 Split ***Under Construction*** (582013) Status Air Temp Sfc Temp Sub Temp Dew Temp Wind Precip Traffic Updated
Sensor [A]: Atmospheric - 72.3 - - 71.6 - - - 10/23/2014 3:40:38 AM
141-IR 75 @ SLM 4.9 475 Split (582014) Status Air Temp Sfc Temp Sub Temp Dew Temp Wind Precip Traffic Updated
Sensor [A]: Atmospheric - 39.4 - - 39.4 1.2 / NW - - 10/23/2014 3:40:11 AM
Sensor [1]: I-75 SB Dry - 40.1 - - - - - 10/23/2014 3:40:11 AM
Sensor [3]: I-475 EB Departure Dry - 40.1 - - - - - 10/23/2014 3:40:11 AM
142 - I-280 @ Veterans Glass City Skyway (VGCS) (582016) Status Air Temp Sfc Temp Sub Temp Dew Temp Wind Precip Traffic Updated
Sensor [A]: Atmospheric - 41.7 - - 38.7 1.2 / NW - - 10/23/2014 3:40:13 AM
Sensor [0]: NB I-280 Driving Lane Trace Moisture - 37.4 - - - - 3 / 60.3 10/23/2014 3:40:13 AM
Sensor [1]: NB I-280 Center Lane Dry - 38.1 - - - - 13 / 57.2 10/23/2014 3:40:13 AM
Sensor [4]: SB I-280 Center Lane Trace Moisture - 38.8 - - - - 19 / 62.1 10/23/2014 3:40:13 AM
143-SR 2 @ MP 31.8 Lucas (582017) Status Air Temp Sfc Temp Sub Temp Dew Temp Wind Precip Traffic Updated
Sensor [A]: Atmospheric - 39.9 - - 38.7 - - - 10/23/2014 3:40:15 AM
Sensor [0]: SR-2 EB Deck Trace Moisture - 40.1 - - - - - 10/23/2014 3:40:15 AM
144-IR 75 & Eagleville Rd. (582018) Status Air Temp Sfc Temp Sub Temp Dew Temp Wind Precip Traffic Updated
Sensor [A]: Atmospheric - 76.6 - - 63.0 4.3 / NE - - 8/18/2014 12:00:17 PM
Sensor [0]: I-75 NB Deck Error - - - - - - - 8/18/2014 12:00:17 PM
Sensor [1]: I-75 SB Deck Error - - - - - - - 8/18/2014 12:00:17 PM
145-IR 75 @ SLM 18.36 Wood (582019) Status Air Temp Sfc Temp Sub Temp Dew Temp Wind Precip Traffic Updated
Sensor [A]: Atmospheric - 80.8 - - 54.1 2.5 / E - - 8/7/2014 1:00:20 PM
Sensor [0]: I-75 NB Approach Error - 112.6 - - - - - 8/7/2014 1:00:20 PM
Sensor [1]: I-75 SB Deck Dry - 108.3 - - - - - 8/7/2014 1:00:20 PM
146-I-75 @ I-475 Wood ***Under Construction*** (582020) Status Air Temp Sfc Temp Sub Temp Dew Temp Wind Precip Traffic Updated
Sensor [A]: Atmospheric - 37.8 - - 18.5 2.5 / NW - - 10/23/2014 3:40:30 AM
147-I-75 @ I-80 Wood County (582021) Status Air Temp Sfc Temp Sub Temp Dew Temp Wind Precip Traffic Updated
Sensor [A]: Atmospheric - 40.1 - - 40.1 1.9 / NW - - 10/23/2014 3:40:32 AM
Sensor [0]: I-75 NB Deck Dry - 41.2 - - - - - 10/23/2014 3:40:32 AM
Sensor [1]: I-75 SB Deck Error - - - - - - - 10/23/2014 3:40:32 AM
148-US-6 @ Rt. 23 (582022) Status Air Temp Sfc Temp Sub Temp Dew Temp Wind Precip Traffic Updated
Sensor [A]: Atmospheric - 41.5 - - 39.9 - - - 10/23/2014 3:40:34 AM
Sensor [0]: US-6 EB Dry - 49.1 - - - - 0 / 9.9 10/23/2014 3:40:34 AM
Sensor [1]: US-23 NB Dry - 49.1 - - - - 0 / 9.9 10/23/2014 3:40:34 AM
149-US-20 @ Lemoyne Rd. (582023) Status Air Temp Sfc Temp Sub Temp Dew Temp Wind Precip Traffic Updated
Sensor [A]: Atmospheric - 44.8 - - 44.1 0.6 / NW - - 10/23/2014 3:40:37 AM
Sensor [0]: US-20 EB Departure Dry - 38.3 - - - - 2 / 52.8 10/23/2014 3:40:37 AM
150-I-280 @ Libbey Rd. (582024) Status Air Temp Sfc Temp Sub Temp Dew Temp Wind Precip Traffic Updated
Sensor [A]: Atmospheric - 40.1 - - 37.8 0.6 / NW - - 10/23/2014 3:40:46 AM
151-SR 2 @ Portage River Bridge (582025) Status Air Temp Sfc Temp Sub Temp Dew Temp Wind Precip Traffic Updated
Sensor [A]: Atmospheric - 47.3 - - 43.9 3.7 / NW - - 10/23/2014 3:40:49 AM
Sensor [0]: SR-2 EB Departure Dry - 46.2 57.6 - - - - 10/23/2014 3:40:49 AM
Sensor [1]: SR-2 WB Deck Frost - -30.3 - - - - - 10/23/2014 3:40:49 AM
152-SR-2@28.5 Bay Br. (582026) Status Air Temp Sfc Temp Sub Temp Dew Temp Wind Precip Traffic Updated
Sensor [A]: Atmospheric - 48.9 - - 48.7 7.5 / W - - 10/23/2014 3:40:51 AM
Sensor [3]: SR2 EB Driving Lane - Bridge Deck Dry - 43.7 - - - - 0 / 0.0 10/23/2014 3:40:51 AM
153-US-20 @ Sugar Creek (582027) Status Air Temp Sfc Temp Sub Temp Dew Temp Wind Precip Traffic Updated
Sensor [A]: Atmospheric - 36.3 - - 36.3 - - - 10/23/2014 3:40:07 AM
Sensor [0]: US-20 EB Driving Dry - 38.3 45.5 - - - 7 / 55.3 10/23/2014 3:40:07 AM
Sensor [1]: US-20 WB Passing Dry - 38.3 - - - - 0 / 0.0 10/23/2014 3:40:07 AM
Sensor [2]: US-20 EB Driving BridgeDeck Trace Moisture - 36.5 - - - - 0 / 0.0 10/23/2014 3:40:07 AM
154-US-6 @ Sandusky River Br (582028) Status Air Temp Sfc Temp Sub Temp Dew Temp Wind Precip Traffic Updated
Sensor [A]: Atmospheric - 39.2 - - 39.2 3.1 / W - - 10/23/2014 3:40:10 AM
Sensor [0]: US-6 EB Approach Trace Moisture - 42.4 - - - - - 10/23/2014 3:40:10 AM
Sensor [1]: US-6 WB Deck Dry - 41.7 - - - - - 10/23/2014 3:40:10 AM
155-US 6 @ Pickeral Creek (582029) Status Air Temp Sfc Temp Sub Temp Dew Temp Wind Precip Traffic Updated
Sensor [A]: Atmospheric - 11.8 - - 11.1 1.9 / W - - 10/23/2014 3:40:13 AM
Sensor [0]: US-6 WB Departure Error - - - - - - - 10/23/2014 3:40:13 AM
Sensor [1]: US-6 WB Deck Ice Watch - 9.0 - - - - - 10/23/2014 3:40:13 AM
156-CR 296 & US 20 MP 31.0 (582030) Status Air Temp Sfc Temp Sub Temp Dew Temp Wind Precip Traffic Updated
Sensor [A]: Atmospheric - 40.1 - - 40.1 3.1 / W - - 10/23/2014 3:40:15 AM
Sensor [0]: US-20 WB Dry - 41.9 57.2 - - - - 10/23/2014 3:40:15 AM
157-US 23 @ MP 5.5 Seneca (582031) Status Air Temp Sfc Temp Sub Temp Dew Temp Wind Precip Traffic Updated
Sensor [A]: Atmospheric - 42.4 - - 40.6 3.1 / SW - - 10/23/2014 3:40:18 AM
Sensor [0]: US-23 NB Dry - 45.3 - - - - - 10/23/2014 3:40:18 AM
158-SR 12 @ Mp 7.0 Seneca (582032) Status Air Temp Sfc Temp Sub Temp Dew Temp Wind Precip Traffic Updated
Sensor [A]: Atmospheric - 43.3 - - 43.0 3.7 / NW - - 10/23/2014 3:40:20 AM
Sensor [0]: SR-12 WB Dry - 43.7 - - - - - 10/23/2014 3:40:20 AM
159-US 224 @ SR 53 Seneca (582033) Status Air Temp Sfc Temp Sub Temp Dew Temp Wind Precip Traffic Updated
Sensor [A]: Atmospheric - 43.7 - - 42.8 - - - 10/23/2014 3:40:22 AM
Sensor [0]: SR-224 EB Bridge Deck Trace Moisture - 43.7 - - - - - 10/23/2014 3:40:22 AM
Sensor [1]: US-224 EB Approach Dry - 45.5 - - - - - 10/23/2014 3:40:22 AM
160-SR 4 @ MP 2.35 Seneca (582034) Status Air Temp Sfc Temp Sub Temp Dew Temp Wind Precip Traffic Updated
Sensor [A]: Atmospheric - 38.7 - - 36.3 5.6 / N - - 10/23/2014 3:40:24 AM
161-I-90 @ SR-252 (562000) Status Air Temp Sfc Temp Sub Temp Dew Temp Wind Precip Traffic Updated
Sensor [A]: Atmospheric - 51.4 - - 49.5 3.1 / N - - 10/23/2014 3:40:04 AM
Sensor [0]: SR-252 NB RL over I-90 Dry - 45.5 - - - - - 10/23/2014 3:40:04 AM
Sensor [2]: I-90 EB N1 Lane Dry - 45.5 - - - - - 10/23/2014 3:40:04 AM
162-I-90 @ Abbey Rd. (562001) Status Air Temp Sfc Temp Sub Temp Dew Temp Wind Precip Traffic Updated
Sensor [A]: Atmospheric - - - - - / Unknown - - -
Sensor [0]: I-90 EB N3 Lane Wet - 74.7 82.2 - - - - 8/21/2011 12:10:14 AM
Sensor [2]: I-90 WB N3 Lane Bridge Wet - 71.8 - - - - - 8/21/2011 12:10:14 AM
163-I-90 @ E. 140th (562002) Status Air Temp Sfc Temp Sub Temp Dew Temp Wind Precip Traffic Updated
Sensor [A]: Atmospheric - 52.3 - - 51.4 2.5 / N - - 10/23/2014 3:40:26 AM
Sensor [1]: I-90 WB N3 Lane Bridge Dew - 47.8 - - - - - 10/23/2014 3:40:26 AM
Sensor [2]: I-90 EB N3 Lane Bridge Dry - 47.3 - - - - - 10/23/2014 3:40:26 AM
164-I-271 @ I-90 (562003) Status Air Temp Sfc Temp Sub Temp Dew Temp Wind Precip Traffic Updated
Sensor [A]: Atmospheric - 48.2 - - 48.0 - - - 10/23/2014 3:40:28 AM
Sensor [0]: I-271 NB TG I-90 EB Dry - 46.4 - - - - - 10/23/2014 3:40:28 AM
Sensor [1]: I-90 EB N2 Lane Bridge Dry - 49.1 - - - - - 10/23/2014 3:40:28 AM
Sensor [2]: I-271 NB TG I-90 WB Bridge Trace Moisture - 45.0 - - - - - 10/23/2014 3:40:28 AM
Sensor [3]: I-271 NB TG I-90 WB Dry - 46.6 - - - - - 10/23/2014 3:40:28 AM
165-I-480 @ SR-10 (562004) Status Air Temp Sfc Temp Sub Temp Dew Temp Wind Precip Traffic Updated
Sensor [A]: Atmospheric - 45.7 - - 45.1 - - - 10/23/2014 3:40:31 AM
Sensor [0]: I-480 EB N2 Lane Bridge Dew - 45.1 - - - - - 10/23/2014 3:40:31 AM
Sensor [1]: I-480 WB N2 Lane Bridge Dew - 44.2 - - - - - 10/23/2014 3:40:31 AM
166-I-71 @ Snow Rd. (562005) Status Air Temp Sfc Temp Sub Temp Dew Temp Wind Precip Traffic Updated
Sensor [A]: Atmospheric - 47.5 - - 47.3 - - - 10/23/2014 3:40:34 AM
Sensor [0]: I-71 NB N3 Lane Bridge Dry - 46.2 - - - - - 10/23/2014 3:40:34 AM
Sensor [1]: I-71 SB N3 Lane Bridge Dry - 46.0 - - - - - 10/23/2014 3:40:34 AM
Sensor [2]: I-71 SB N3 Lane Dry - 45.5 - - - - - 10/23/2014 3:40:34 AM
167-I-77 @ I-480 (562006) Status Air Temp Sfc Temp Sub Temp Dew Temp Wind Precip Traffic Updated
Sensor [A]: Atmospheric - 47.7 - - 47.3 0.6 / SW - - 10/23/2014 3:40:36 AM
Sensor [0]: I-77 NB N2L Br @ SR-17 Error - - - - - - - 10/23/2014 3:40:36 AM
Sensor [1]: I-77 SB N2L Br @ SR-17 Error - - - - - - - 10/23/2014 3:40:36 AM
Sensor [3]: I-77 NB RL Br over I-480 Dry - 45.5 - - - - - 10/23/2014 3:40:36 AM
168-I-480 N @ Miles Rd. (562007) Status Air Temp Sfc Temp Sub Temp Dew Temp Wind Precip Traffic Updated
Sensor [A]: Atmospheric - 43.0 - - 41.2 - - - 10/23/2014 3:40:04 AM
Sensor [0]: I-480 N WB N2 Lane Dry - 41.9 - - - - - 10/23/2014 3:40:04 AM
Sensor [1]: I-480 N WB N2 Lane Br Dry - 41.9 - - - - - 10/23/2014 3:40:04 AM
Sensor [2]: I-480 EB N2 Lane Br Dry - 41.9 - - - - - 10/23/2014 3:40:04 AM
169-I-271 @ US-322 (562008) Status Air Temp Sfc Temp Sub Temp Dew Temp Wind Precip Traffic Updated
Sensor [A]: Atmospheric - 45.1 - - 45.1 - - - 10/23/2014 3:40:06 AM
Sensor [0]: I-271 SB N2 Lane Br Dry - 43.7 - - - - - 10/23/2014 3:40:06 AM
Sensor [1]: I-271 SB N2 Lane Dry - 43.7 - - - - - 10/23/2014 3:40:06 AM
Sensor [2]: I-271 NB N2 Lane Br Dry - 43.7 - - - - - 10/23/2014 3:40:06 AM
Sensor [3]: I-271 NB N2 Lane Dry - 45.1 - - - - - 10/23/2014 3:40:06 AM
170-I-71 @ Drake Rd. (562009) Status Air Temp Sfc Temp Sub Temp Dew Temp Wind Precip Traffic Updated
Sensor [A]: Atmospheric - 46.0 - - 45.0 3.1 / NW - - 10/23/2014 3:40:09 AM
Sensor [0]: I-71 NB N2 Lane Trace Moisture - 45.5 53.4 - - - - 10/23/2014 3:40:09 AM
Sensor [1]: I-71 NB N2 Lane Br Trace Moisture - 44.1 - - - - - 10/23/2014 3:40:09 AM
Sensor [2]: I-71 SB N2 Lane Br Dry - 45.5 - - - - - 10/23/2014 3:40:09 AM
171-I-77 @ SR-82 (562010) Status Air Temp Sfc Temp Sub Temp Dew Temp Wind Precip Traffic Updated
Sensor [A]: Atmospheric - 45.7 - - 44.8 2.5 / NW - - 10/23/2014 3:40:11 AM
Sensor [0]: I-77 NB N2 Lane Br Dry - 41.9 - - - - - 10/23/2014 3:40:11 AM
Sensor [1]: I-77 SB N2 Lane Br Dry - 41.9 - - - - - 10/23/2014 3:40:11 AM
Sensor [2]: I-77 SB N2 Lane Dry - 43.7 - - - - - 10/23/2014 3:40:11 AM
172-US-422 @ Chagrin Blvd. (562011) Status Air Temp Sfc Temp Sub Temp Dew Temp Wind Precip Traffic Updated
Sensor [A]: Atmospheric - 41.4 - - 39.2 - - - 10/23/2014 3:40:13 AM
Sensor [0]: US-422 WB N2 Lane Dry - 44.2 56.3 - - - - 10/23/2014 3:40:13 AM
Sensor [1]: US-422 WB N2 Lane Br Dry - 45.5 - - - - - 10/23/2014 3:40:13 AM
Sensor [2]: US-422 EB N2 Lane Br Trace Moisture - 42.1 - - - - - 10/23/2014 3:40:13 AM
173-US-422 @ SR-44 (562012) Status Air Temp Sfc Temp Sub Temp Dew Temp Wind Precip Traffic Updated
Sensor [A]: Atmospheric - 45.0 - - 43.3 1.9 / NW - - 10/23/2014 3:40:15 AM
Sensor [2]: US-422 EB N2 Lane Br Wet - 41.9 - - - - - 10/23/2014 3:40:15 AM
174- SR-528 @SR-87 (562013) Status Air Temp Sfc Temp Sub Temp Dew Temp Wind Precip Traffic Updated
Sensor [A]: Atmospheric - 43.9 - - 43.9 3.1 / NW - - 10/23/2014 3:50:02 AM
Sensor [0]: SR528 NB Dry - 47.3 - - - - - 10/23/2014 3:40:03 AM
Sensor [1]: SR87 WB Trace Moisture - 43.7 - - - - - 10/23/2014 3:40:03 AM
175-SR-44 @ Mentor Rd. (562014) Status Air Temp Sfc Temp Sub Temp Dew Temp Wind Precip Traffic Updated
Sensor [A]: Atmospheric - 44.1 - - 44.1 1.9 / NW - - 10/23/2014 3:40:06 AM
Sensor [0]: SR44 NB Dry - 47.3 56.3 - - - - 10/23/2014 3:40:06 AM
176-SR-528 @ SR-166 (562015) Status Air Temp Sfc Temp Sub Temp Dew Temp Wind Precip Traffic Updated
Sensor [A]: Atmospheric - 46.8 - - 46.2 4.3 / E - - 10/23/2014 3:40:09 AM
Sensor [0]: SR-528 SB N of SR-166 Trace Moisture - 45.5 - - - - - 10/23/2014 3:40:09 AM
Sensor [1]: SR-166 WB W of SR-528 Trace Moisture - 45.5 - - - - - 10/23/2014 3:40:09 AM
177-I-90 @ Hermitage Rd. (562016) Status Air Temp Sfc Temp Sub Temp Dew Temp Wind Precip Traffic Updated
Sensor [A]: Atmospheric - 66.7 - - 66.7 1.2 / E - - 6/18/2014 8:10:08 AM
Sensor [0]: I-90 WB N2 Lane Br Error - - - - - - - 6/18/2014 8:10:08 AM
178-I-90 @ Paine Rd. (562017) Status Air Temp Sfc Temp Sub Temp Dew Temp Wind Precip Traffic Updated
Sensor [A]: Atmospheric - 63.9 - - 42.3 6.8 / E - - 5/3/2013 8:30:25 AM
Sensor [0]: I-90 WB N2 Lane Br Error - - - - - - - 5/3/2013 8:30:25 AM
179-US-20 @ Parmly Rd. (562018) Status Air Temp Sfc Temp Sub Temp Dew Temp Wind Precip Traffic Updated
Sensor [A]: Atmospheric - 46.2 - - 46.2 - - - 10/23/2014 3:40:49 AM
Sensor [0]: US-20 WB N2 Lane Dry - 43.7 - - - - - 10/23/2014 3:40:49 AM
180-I270 @ US33 (38015) Status Air Temp Sfc Temp Sub Temp Dew Temp Wind Precip Traffic Updated
Sensor [A]: Atmospheric - 42.3 - - - 3.1 / N - - 10/23/2014 3:40:06 AM
181-US32 @ Pike & Adams County Line (200180) Status Air Temp Sfc Temp Sub Temp Dew Temp Wind Precip Traffic Updated
Sensor [A]: Atmospheric - 41.7 - - 40.1 - - - 10/23/2014 3:41:50 AM
Sensor [0]: US32 EB Driving Dry - 50.9 - - - - 1 / 9.9 10/23/2014 3:41:50 AM
Sensor [1]: US32 WB Driving Dry - 50.9 - - - - 4 / 9.9 10/23/2014 3:41:50 AM
182-I71 @ SR665 Grove City Outpost (200181) Status Air Temp Sfc Temp Sub Temp Dew Temp Wind Precip Traffic Updated
Sensor [A]: Atmospheric - 43.2 - - 39.7 1.2 / NW - - 10/23/2014 3:43:07 AM
Sensor [0]: IR71 NB Driving Dry - 43.7 - - - - 6 / 52.2 10/23/2014 3:43:07 AM
183-US30 @ SR68 (200182) Status Air Temp Sfc Temp Sub Temp Dew Temp Wind Precip Traffic Updated
Sensor [A]: Atmospheric - 40.6 - - 38.8 3.1 / W - - 10/23/2014 3:45:02 AM
Sensor [0]: US30 EB Driving Dry - 41.9 - - - - - 10/23/2014 3:45:02 AM
Sensor [1]: US30 WB Driving Bridgedeck Dry - 43.7 - - - - - 10/23/2014 3:45:02 AM
184 - SR562(Norwood Lateral) @ Reading Road (80000) Status Air Temp Sfc Temp Sub Temp Dew Temp Wind Precip Traffic Updated
Sensor [A]: Atmospheric - 65.3 - - 58.6 5.0 / NE - - 5/7/2013 11:00:57 AM
185 - River Road @ Kibby Lane (80001) Status Air Temp Sfc Temp Sub Temp Dew Temp Wind Precip Traffic Updated
Sensor [A]: Atmospheric - 55.2 - - 43.5 2.5 / E - - 10/22/2014 2:50:40 PM
186-SR49 @ SR81 (200185) Status Air Temp Sfc Temp Sub Temp Dew Temp Wind Precip Traffic Updated
Sensor [A]: Atmospheric - 35.1 - - 35.1 0.6 / SW - - 10/23/2014 3:45:27 AM
Sensor [0]: SR81 Eastbound Approach Trace Moisture - 34.7 - - - - - 10/23/2014 3:45:27 AM
187-SR15 @ SR613 (200186) Status Air Temp Sfc Temp Sub Temp Dew Temp Wind Precip Traffic Updated
Sensor [A]: Atmospheric - 33.4 - - 33.1 0.6 / SW - - 10/23/2014 3:24:19 AM
Sensor [0]: SR15 NB Lane Dry - 40.6 - - - - - 10/23/2014 3:24:19 AM